Temp: 17.4°C   Baro: 1015.3mb
  Wind: 14.1mph   Dir: WNW (294°)
  Rain: 9.6mm (0.0mm/hr)
  Solar: 830W/m2  Hum: 68%
 
Bath Spa Weather Historical Data
Daily Summary for July 20, 2019 Units:  Metric    English   Both
Next Day »
Daily Weekly Monthly Yearly Custom
  High: Low: Average:
Temperature: 20.0 °C 13.9 °C 17.1 °C
Dew Point: 15.7 °C 11.3 °C 13.7 °C
Humidity: 93% 63% 81%
Wind Speed: 37.0km/h 0.0km/h 10.1km/h
Wind Gust: 38.6km/h - -
Wind direction- - West
Pressure: 1016.5 hPa 1003.9 hPa -
Precipitation: 1.8 mm    
Historical Graphs
 
 
Tabular Data for July 20, 2019
Time Temperature Dew Point Pressure Wind direction Wind Speed Wind Gust Humidity Rainfall Rate (Hourly) solar
00:04 16.8 °C 15.5 °C 1006.0 hPa SW 1.4 km/h 6.4 km/h 92% 0.0 mm 0.00 W/m2
00:09 16.8 °C 15.5 °C 1006.0 hPa Calm   3.2 km/h 92% 0.0 mm 0.00 W/m2
00:14 16.8 °C 15.5 °C 1006.0 hPa SSW 9.7 km/h 9.7 km/h 92% 0.0 mm 0.00 W/m2
00:19 16.8 °C 15.5 °C 1006.0 hPa Calm   4.8 km/h 92% 0.0 mm 0.00 W/m2
00:24 16.8 °C 15.5 °C 1006.0 hPa SSW 1.4 km/h 3.2 km/h 92% 0.0 mm 0.00 W/m2
00:29 16.7 °C 15.4 °C 1006.0 hPa Calm   1.6 km/h 92% 0.0 mm 0.00 W/m2
00:34 16.7 °C 15.4 °C 1006.0 hPa Calm     92% 0.3 mm 0.00 W/m2
00:39 16.7 °C 15.4 °C 1005.6 hPa SSW 6.4 km/h 6.4 km/h 92% 0.3 mm 0.00 W/m2
00:44 16.7 °C 15.4 °C 1005.6 hPa SSW 1.4 km/h 6.4 km/h 92% 0.3 mm 0.00 W/m2
00:49 16.7 °C 15.4 °C 1005.6 hPa Calm   1.6 km/h 92% 0.3 mm 0.00 W/m2
00:54 16.7 °C 15.4 °C 1005.6 hPa SSW 1.4 km/h 6.4 km/h 92% 0.3 mm 0.00 W/m2
00:59 16.7 °C 15.4 °C 1005.6 hPa Calm   6.4 km/h 92% 0.3 mm 0.00 W/m2
01:04 16.7 °C 15.4 °C 1005.3 hPa SSE 4.7 km/h 9.7 km/h 92% 0.3 mm 0.00 W/m2
01:09 16.7 °C 15.4 °C 1005.3 hPa SSE 3.2 km/h 11.3 km/h 92% 0.3 mm 0.00 W/m2
01:14 16.7 °C 15.6 °C 1005.3 hPa Calm   8.0 km/h 93% 0.3 mm 0.00 W/m2
01:19 16.7 °C 15.6 °C 1005.3 hPa South 9.7 km/h 9.7 km/h 93% 0.3 mm 0.00 W/m2
01:24 16.7 °C 15.4 °C 1005.6 hPa Calm   9.7 km/h 92% 0.3 mm 0.00 W/m2
01:29 16.7 °C 15.4 °C 1005.0 hPa Calm     92% 0.0 mm 0.00 W/m2
01:34 16.8 °C 15.5 °C 1005.3 hPa Calm   1.6 km/h 92% 0.0 mm 0.00 W/m2
01:39 16.8 °C 15.5 °C 1005.3 hPa Calm     92% 0.0 mm 0.00 W/m2
01:44 16.8 °C 15.7 °C 1005.3 hPa Calm     93% 0.0 mm 0.00 W/m2
01:49 16.8 °C 15.5 °C 1005.3 hPa SW 3.2 km/h 4.8 km/h 92% 0.0 mm 0.00 W/m2
01:54 16.7 °C 15.4 °C 1005.3 hPa SW 1.4 km/h 4.8 km/h 92% 0.0 mm 0.00 W/m2
01:59 16.7 °C 15.4 °C 1005.3 hPa SW 1.4 km/h 6.4 km/h 92% 0.0 mm 0.00 W/m2
02:04 16.7 °C 15.6 °C 1005.3 hPa Calm   6.4 km/h 93% 0.0 mm 0.00 W/m2
02:09 16.7 °C 15.6 °C 1005.3 hPa Calm   6.4 km/h 93% 0.0 mm 0.00 W/m2
02:14 16.7 °C 15.4 °C 1005.3 hPa SSW 9.7 km/h 9.7 km/h 92% 0.0 mm 0.00 W/m2
02:19 16.7 °C 15.4 °C 1005.3 hPa Calm   6.4 km/h 92% 0.0 mm 0.00 W/m2
02:24 16.7 °C 15.4 °C 1005.3 hPa Calm   9.7 km/h 92% 0.0 mm 0.00 W/m2
02:29 16.7 °C 15.4 °C 1005.0 hPa SW 7.9 km/h 16.1 km/h 92% 0.0 mm 0.00 W/m2
02:34 16.6 °C 15.3 °C 1005.0 hPa SSW 4.7 km/h 8.0 km/h 92% 0.0 mm 0.00 W/m2
02:39 16.6 °C 15.3 °C 1005.0 hPa SSW 4.7 km/h 11.3 km/h 92% 0.0 mm 0.00 W/m2
02:44 16.6 °C 15.3 °C 1005.0 hPa SSW 1.4 km/h 11.3 km/h 92% 0.3 mm 0.00 W/m2
02:49 16.5 °C 15.2 °C 1005.0 hPa SW 11.1 km/h 20.9 km/h 92% 0.3 mm 0.00 W/m2
02:54 16.5 °C 15.2 °C 1005.0 hPa SW 7.9 km/h 12.9 km/h 92% 0.3 mm 0.00 W/m2
02:59 16.4 °C 15.1 °C 1004.6 hPa SSW 4.7 km/h 11.3 km/h 92% 1.0 mm 0.00 W/m2
03:04 16.4 °C 15.1 °C 1004.6 hPa South 6.4 km/h 11.3 km/h 92% 1.0 mm 0.00 W/m2
03:09 16.4 °C 15.1 °C 1004.6 hPa SSW 1.4 km/h 14.5 km/h 92% 1.0 mm 0.00 W/m2
03:14 16.4 °C 15.1 °C 1004.6 hPa Calm   16.1 km/h 92% 1.0 mm 0.00 W/m2
03:19 16.4 °C 15.1 °C 1004.6 hPa SW 7.9 km/h 11.3 km/h 92% 1.0 mm 0.00 W/m2
03:24 16.3 °C 15.0 °C 1004.6 hPa South 1.4 km/h 9.7 km/h 92% 1.0 mm 0.00 W/m2
03:29 16.3 °C 15.0 °C 1004.6 hPa South 7.9 km/h 11.3 km/h 92% 1.0 mm 0.00 W/m2
03:34 16.3 °C 15.0 °C 1004.3 hPa SSW 4.7 km/h 8.0 km/h 92% 1.0 mm 0.00 W/m2
03:39 16.3 °C 15.0 °C 1004.3 hPa SSW 3.2 km/h 4.8 km/h 92% 1.5 mm 0.00 W/m2
03:44 16.3 °C 15.0 °C 1004.3 hPa Calm     92% 1.0 mm 0.00 W/m2
03:49 16.3 °C 15.0 °C 1004.3 hPa Calm     92% 1.0 mm 0.00 W/m2
03:54 16.3 °C 15.0 °C 1004.3 hPa Calm     92% 1.0 mm 0.00 W/m2
03:59 16.3 °C 15.0 °C 1004.3 hPa SSW 4.8 km/h 4.8 km/h 92% 0.5 mm 0.00 W/m2
04:04 16.3 °C 15.0 °C 1004.3 hPa Calm     92% 0.3 mm 0.00 W/m2
04:09 16.3 °C 15.2 °C 1003.9 hPa Calm   11.3 km/h 93% 0.3 mm 0.00 W/m2
04:14 16.3 °C 15.0 °C 1003.9 hPa SSW 4.7 km/h 4.8 km/h 92% 0.3 mm 0.00 W/m2
04:19 16.3 °C 15.0 °C 1003.9 hPa SSW 8.0 km/h 8.0 km/h 92% 0.3 mm 0.00 W/m2
04:24 16.3 °C 15.0 °C 1003.9 hPa SSW 3.2 km/h 6.4 km/h 92% 0.3 mm 0.00 W/m2
04:29 16.3 °C 15.0 °C 1003.9 hPa SSW 1.4 km/h 4.8 km/h 92% 0.3 mm 0.00 W/m2
04:34 16.3 °C 15.0 °C 1004.3 hPa Calm   6.4 km/h 92% 0.3 mm 0.00 W/m2
04:39 16.3 °C 15.0 °C 1003.9 hPa SW 4.7 km/h 9.7 km/h 92% 0.0 mm 0.00 W/m2
04:44 16.3 °C 15.0 °C 1003.9 hPa SSW 7.9 km/h 12.9 km/h 92% 0.0 mm 0.00 W/m2
04:49 16.3 °C 15.0 °C 1003.9 hPa WSW 7.9 km/h 12.9 km/h 92% 0.0 mm 0.00 W/m2
04:54 16.4 °C 15.1 °C 1003.9 hPa SSW 1.4 km/h 8.0 km/h 92% 0.0 mm 0.00 W/m2
04:59 16.4 °C 15.1 °C 1004.3 hPa SSW 1.4 km/h 8.0 km/h 92% 0.0 mm 0.00 W/m2
05:04 16.3 °C 15.0 °C 1004.3 hPa SW 12.9 km/h 12.9 km/h 92% 0.0 mm 0.00 W/m2
05:09 16.3 °C 15.0 °C 1004.3 hPa South 3.2 km/h 12.9 km/h 92% 0.0 mm 0.00 W/m2
05:14 16.3 °C 15.0 °C 1004.3 hPa SW 4.7 km/h 8.0 km/h 92% 0.0 mm 0.00 W/m2
05:19 16.3 °C 15.0 °C 1004.3 hPa SW 7.9 km/h 9.7 km/h 92% 0.0 mm 0.00 W/m2
05:24 16.3 °C 15.0 °C 1004.3 hPa SW 1.4 km/h 9.7 km/h 92% 0.0 mm 0.00 W/m2
05:29 16.3 °C 15.0 °C 1004.3 hPa WSW 14.5 km/h 14.5 km/h 92% 0.0 mm 0.00 W/m2
05:34 16.3 °C 15.0 °C 1004.3 hPa SW 7.9 km/h 8.0 km/h 92% 0.0 mm 7.00 W/m2
05:39 16.2 °C 14.9 °C 1003.9 hPa SSW 3.2 km/h 17.7 km/h 92% 0.0 mm 9.00 W/m2
05:44 16.1 °C 14.8 °C 1003.9 hPa SW 9.7 km/h 11.3 km/h 92% 0.0 mm 12.00 W/m2
05:49 16.1 °C 14.8 °C 1004.3 hPa Calm   16.1 km/h 92% 0.0 mm 14.00 W/m2
05:54 16.0 °C 14.7 °C 1004.3 hPa WSW 6.4 km/h 11.3 km/h 92% 0.0 mm 18.00 W/m2
05:59 16.0 °C 14.7 °C 1004.3 hPa SW 4.7 km/h 9.7 km/h 92% 0.0 mm 23.00 W/m2
06:04 15.9 °C 14.6 °C 1004.3 hPa SSW 1.4 km/h 8.0 km/h 92% 0.0 mm 42.00 W/m2
06:09 15.9 °C 14.6 °C 1004.3 hPa SW 6.4 km/h 11.3 km/h 92% 0.0 mm 26.00 W/m2
06:14 16.0 °C 14.7 °C 1004.3 hPa SW 13.0 km/h 12.9 km/h 92% 0.0 mm 39.00 W/m2
06:19 16.1 °C 14.8 °C 1004.3 hPa SW 14.3 km/h 14.5 km/h 92% 0.0 mm 40.00 W/m2
06:24 16.1 °C 14.8 °C 1004.3 hPa SSW 1.4 km/h 9.7 km/h 92% 0.0 mm 44.00 W/m2
06:29 16.1 °C 14.8 °C 1004.3 hPa SW 9.7 km/h 12.9 km/h 92% 0.0 mm 47.00 W/m2
06:34 16.2 °C 14.7 °C 1004.3 hPa WSW 11.1 km/h 12.9 km/h 91% 0.0 mm 37.00 W/m2
06:39 16.2 °C 14.7 °C 1004.3 hPa SW 4.7 km/h 14.5 km/h 91% 0.0 mm 58.00 W/m2
06:44 16.3 °C 14.8 °C 1004.3 hPa SW 7.9 km/h 11.3 km/h 91% 0.0 mm 39.00 W/m2
06:49 16.3 °C 14.8 °C 1004.3 hPa WSW 16.1 km/h 16.1 km/h 91% 0.0 mm 28.00 W/m2
06:54 16.3 °C 14.8 °C 1004.3 hPa SW 9.7 km/h 16.1 km/h 91% 0.0 mm 37.00 W/m2
06:59 16.3 °C 14.8 °C 1004.3 hPa SW 9.7 km/h 11.3 km/h 91% 0.0 mm 44.00 W/m2
07:04 16.3 °C 14.8 °C 1004.6 hPa WSW 4.7 km/h 14.5 km/h 91% 0.0 mm 46.00 W/m2
07:09 16.3 °C 14.7 °C 1004.6 hPa West 16.1 km/h 16.1 km/h 90% 0.0 mm 40.00 W/m2
07:14 16.3 °C 14.7 °C 1004.6 hPa WSW 14.3 km/h 14.5 km/h 90% 0.0 mm 51.00 W/m2
07:19 16.3 °C 14.7 °C 1004.6 hPa WSW 16.3 km/h 25.7 km/h 90% 0.0 mm 72.00 W/m2
07:24 16.3 °C 14.7 °C 1004.6 hPa West 4.7 km/h 12.9 km/h 90% 0.0 mm 79.00 W/m2
07:29 16.3 °C 14.5 °C 1004.6 hPa West 11.1 km/h 17.7 km/h 89% 0.0 mm 74.00 W/m2
07:34 16.3 °C 14.5 °C 1004.6 hPa WSW 4.7 km/h 9.7 km/h 89% 0.0 mm 93.00 W/m2
07:39 16.3 °C 14.5 °C 1004.6 hPa West 1.4 km/h 9.7 km/h 89% 0.0 mm 67.00 W/m2
07:44 16.2 °C 14.4 °C 1005.0 hPa WSW 11.1 km/h 17.7 km/h 89% 0.0 mm 171.00 W/m2
07:49 16.4 °C 14.4 °C 1005.0 hPa WSW 7.9 km/h 14.5 km/h 88% 0.0 mm 329.00 W/m2
07:54 16.7 °C 14.5 °C 1005.0 hPa SW 11.1 km/h 17.7 km/h 87% 0.0 mm 200.00 W/m2
07:59 16.7 °C 14.3 °C 1005.0 hPa West 4.7 km/h 20.9 km/h 86% 0.0 mm 295.00 W/m2
08:04 16.8 °C 14.4 °C 1005.0 hPa West 4.7 km/h 8.0 km/h 86% 0.0 mm 90.00 W/m2
08:09 16.7 °C 14.3 °C 1005.3 hPa NW 9.7 km/h 19.3 km/h 86% 0.0 mm 39.00 W/m2
08:14 16.2 °C 13.9 °C 1005.3 hPa West 9.7 km/h 20.9 km/h 86% 0.0 mm 32.00 W/m2
08:19 15.9 °C 13.9 °C 1005.3 hPa NW 7.9 km/h 14.5 km/h 88% 0.0 mm 72.00 W/m2
08:24 15.7 °C 13.9 °C 1005.6 hPa WNW 4.7 km/h 19.3 km/h 89% 0.0 mm 42.00 W/m2
08:29 15.5 °C 13.9 °C 1005.6 hPa West 4.7 km/h 17.7 km/h 90% 0.0 mm 65.00 W/m2
08:34 15.3 °C 13.7 °C 1005.6 hPa West 9.7 km/h 19.3 km/h 90% 0.0 mm 91.00 W/m2
08:39 15.3 °C 13.7 °C 1005.6 hPa WNW 13.0 km/h 14.5 km/h 90% 0.0 mm 132.00 W/m2
08:44 15.3 °C 13.8 °C 1005.6 hPa West 7.9 km/h 20.9 km/h 91% 0.0 mm 116.00 W/m2
08:49 15.4 °C 13.8 °C 1005.6 hPa WNW 14.3 km/h 16.1 km/h 90% 0.0 mm 128.00 W/m2
08:54 15.4 °C 13.8 °C 1005.6 hPa West 13.0 km/h 12.9 km/h 90% 0.0 mm 172.00 W/m2
08:59 15.5 °C 13.9 °C 1005.6 hPa WNW 3.2 km/h 16.1 km/h 90% 0.0 mm 160.00 W/m2
09:04 15.7 °C 14.1 °C 1005.6 hPa WNW 13.0 km/h 14.5 km/h 90% 0.0 mm 151.00 W/m2
09:09 15.8 °C 14.0 °C 1006.0 hPa West 9.7 km/h 16.1 km/h 89% 0.0 mm 178.00 W/m2
09:14 15.8 °C 14.0 °C 1006.0 hPa WNW 16.3 km/h 19.3 km/h 89% 0.0 mm 176.00 W/m2
09:19 16.0 °C 14.0 °C 1006.0 hPa WNW 24.1 km/h 24.1 km/h 88% 0.0 mm 188.00 W/m2
09:24 16.1 °C 13.9 °C 1006.0 hPa West 7.9 km/h 16.1 km/h 87% 0.0 mm 195.00 W/m2
09:29 16.2 °C 13.7 °C 1006.0 hPa WNW 11.1 km/h 27.4 km/h 85% 0.0 mm 253.00 W/m2
09:34 16.4 °C 13.9 °C 1006.0 hPa West 11.1 km/h 22.5 km/h 85% 0.0 mm 279.00 W/m2
09:39 16.5 °C 13.8 °C 1006.0 hPa WSW 16.3 km/h 24.1 km/h 84% 0.0 mm 265.00 W/m2
09:44 16.7 °C 13.6 °C 1006.3 hPa WNW 4.7 km/h 19.3 km/h 82% 0.0 mm 281.00 W/m2
09:49 16.7 °C 13.6 °C 1006.3 hPa WSW 3.2 km/h 25.7 km/h 82% 0.0 mm 257.00 W/m2
09:54 16.8 °C 13.5 °C 1006.3 hPa West 14.3 km/h 19.3 km/h 81% 0.0 mm 220.00 W/m2
09:59 17.2 °C 14.1 °C 1006.3 hPa WNW 6.4 km/h 14.5 km/h 82% 0.0 mm 621.00 W/m2
10:04 17.4 °C 13.7 °C 1006.3 hPa West 6.4 km/h 17.7 km/h 79% 0.0 mm 383.00 W/m2
10:09 17.7 °C 13.2 °C 1006.3 hPa West 11.1 km/h 32.2 km/h 75% 0.0 mm 343.00 W/m2
10:14 17.7 °C 13.2 °C 1006.3 hPa WSW 17.7 km/h 29.0 km/h 75% 0.0 mm 301.00 W/m2
10:19 17.6 °C 13.1 °C 1006.3 hPa WNW 9.7 km/h 16.1 km/h 75% 0.0 mm 276.00 W/m2
10:24 17.8 °C 13.3 °C 1006.7 hPa WSW 6.4 km/h 25.7 km/h 75% 0.0 mm 679.00 W/m2
10:29 18.5 °C 14.2 °C 1006.3 hPa West 14.3 km/h 14.5 km/h 76% 0.0 mm 805.00 W/m2
10:34 18.5 °C 13.8 °C 1006.7 hPa West 7.9 km/h 25.7 km/h 74% 0.0 mm 330.00 W/m2
10:39 18.5 °C 13.6 °C 1006.7 hPa WNW 19.5 km/h 20.9 km/h 73% 0.0 mm 295.00 W/m2
10:44 18.2 °C 13.3 °C 1006.7 hPa WSW 9.7 km/h 20.9 km/h 73% 0.0 mm 248.00 W/m2
10:49 18.2 °C 13.3 °C 1006.7 hPa WNW 19.5 km/h 29.0 km/h 73% 0.0 mm 301.00 W/m2
10:54 18.1 °C 12.8 °C 1006.7 hPa WSW 24.1 km/h 30.6 km/h 71% 0.0 mm 362.00 W/m2
10:59 18.3 °C 13.2 °C 1006.7 hPa WSW 14.3 km/h 24.1 km/h 72% 0.0 mm 714.00 W/m2
11:04 18.5 °C 13.4 °C 1007.0 hPa WNW 19.5 km/h 29.0 km/h 72% 0.0 mm 336.00 W/m2
11:09 18.4 °C 13.5 °C 1007.0 hPa NW 14.3 km/h 17.7 km/h 73% 0.0 mm 420.00 W/m2
11:14 18.3 °C 13.2 °C 1007.0 hPa NW 14.3 km/h 25.7 km/h 72% 0.0 mm 336.00 W/m2
11:19 18.2 °C 13.1 °C 1007.0 hPa WNW 11.1 km/h 20.9 km/h 72% 0.0 mm 336.00 W/m2
11:24 18.0 °C 13.3 °C 1007.0 hPa West 19.5 km/h 27.4 km/h 74% 0.0 mm 499.00 W/m2
11:29 18.2 °C 13.7 °C 1007.0 hPa NW 13.0 km/h 14.5 km/h 75% 0.0 mm 341.00 W/m2
11:34 18.1 °C 13.4 °C 1007.3 hPa WNW 19.5 km/h 22.5 km/h 74% 0.0 mm 295.00 W/m2
11:39 18.0 °C 13.3 °C 1007.3 hPa WNW 13.0 km/h 25.7 km/h 74% 0.0 mm 348.00 W/m2
11:44 18.4 °C 14.1 °C 1007.3 hPa West 14.3 km/h 19.3 km/h 76% 0.0 mm 445.00 W/m2
11:49 18.5 °C 13.6 °C 1007.3 hPa West 11.1 km/h 29.0 km/h 73% 0.3 mm 383.00 W/m2
11:54 18.4 °C 13.7 °C 1007.3 hPa WSW 24.1 km/h 27.4 km/h 74% 0.3 mm 436.00 W/m2
11:59 18.4 °C 13.5 °C 1007.3 hPa West 17.7 km/h 20.9 km/h 73% 0.3 mm 267.00 W/m2
12:04 18.5 °C 13.8 °C 1007.3 hPa SW 28.8 km/h 29.0 km/h 74% 0.3 mm 339.00 W/m2
12:09 18.4 °C 13.9 °C 1007.7 hPa West 20.9 km/h 27.4 km/h 75% 0.3 mm 279.00 W/m2
12:14 17.8 °C 13.5 °C 1007.7 hPa WNW 14.3 km/h 24.1 km/h 76% 0.3 mm 448.00 W/m2
12:19 18.0 °C 13.7 °C 1008.0 hPa West 19.5 km/h 30.6 km/h 76% 0.3 mm 485.00 W/m2
12:24 18.0 °C 13.9 °C 1008.0 hPa West 17.7 km/h 33.8 km/h 77% 0.3 mm 387.00 W/m2
12:29 18.0 °C 13.7 °C 1008.0 hPa NW 6.4 km/h 24.1 km/h 76% 0.3 mm 371.00 W/m2
12:34 17.9 °C 13.6 °C 1008.0 hPa WNW 14.3 km/h 35.4 km/h 76% 0.3 mm 459.00 W/m2
12:39 18.1 °C 13.6 °C 1008.0 hPa West 9.7 km/h 17.7 km/h 75% 0.3 mm 466.00 W/m2
12:44 18.5 °C 13.8 °C 1008.0 hPa West 7.9 km/h 27.4 km/h 74% 0.3 mm 671.00 W/m2
12:49 18.8 °C 13.9 °C 1008.4 hPa WNW 7.9 km/h 29.0 km/h 73% 0.0 mm 506.00 W/m2
12:54 18.5 °C 13.6 °C 1008.4 hPa NW 11.1 km/h 32.2 km/h 73% 0.0 mm 341.00 W/m2
12:59 19.2 °C 14.2 °C 1008.0 hPa NW 7.9 km/h 19.3 km/h 73% 0.0 mm 1072.00 W/m2
13:04 19.4 °C 14.0 °C 1008.4 hPa NW 11.1 km/h 25.7 km/h 71% 0.0 mm 1102.00 W/m2
13:09 19.0 °C 13.6 °C 1008.4 hPa West 14.3 km/h 30.6 km/h 71% 0.0 mm 517.00 W/m2
13:14 19.1 °C 13.9 °C 1008.4 hPa NW 6.4 km/h 27.4 km/h 72% 0.0 mm 406.00 W/m2
13:19 19.0 °C 13.8 °C 1008.4 hPa WNW 17.7 km/h 30.6 km/h 72% 0.0 mm 406.00 W/m2
13:24 19.0 °C 13.8 °C 1008.4 hPa West 13.0 km/h 32.2 km/h 72% 0.0 mm 461.00 W/m2
13:29 19.0 °C 13.8 °C 1008.4 hPa WNW 14.3 km/h 32.2 km/h 72% 0.0 mm 468.00 W/m2
13:34 19.2 °C 14.0 °C 1008.7 hPa NW 11.1 km/h 33.8 km/h 72% 0.0 mm 480.00 W/m2
13:39 19.0 °C 14.0 °C 1008.7 hPa WNW 9.7 km/h 25.7 km/h 73% 0.0 mm 538.00 W/m2
13:44 19.1 °C 13.7 °C 1008.7 hPa NW 20.9 km/h 29.0 km/h 71% 0.0 mm 554.00 W/m2
13:49 18.8 °C 13.4 °C 1008.7 hPa West 35.4 km/h 35.4 km/h 71% 0.0 mm 531.00 W/m2
13:54 18.8 °C 13.6 °C 1009.0 hPa WSW 19.5 km/h 27.4 km/h 72% 0.0 mm 485.00 W/m2
13:59 18.6 °C 13.7 °C 1009.0 hPa WSW 13.0 km/h 29.0 km/h 73% 0.0 mm 533.00 W/m2
14:04 18.7 °C 13.5 °C 1009.0 hPa WNW 6.4 km/h 30.6 km/h 72% 0.0 mm 432.00 W/m2
14:09 18.5 °C 13.4 °C 1009.0 hPa WNW 25.9 km/h 25.7 km/h 72% 0.0 mm 568.00 W/m2
14:14 19.2 °C 14.0 °C 1009.0 hPa WNW 25.9 km/h 29.0 km/h 72% 0.0 mm 1079.00 W/m2
14:19 19.2 °C 13.8 °C 1009.0 hPa NNW 17.7 km/h 38.6 km/h 71% 0.0 mm 916.00 W/m2
14:24 19.4 °C 14.0 °C 1009.0 hPa WSW 17.7 km/h 25.7 km/h 71% 0.0 mm 918.00 W/m2
14:29 19.5 °C 13.7 °C 1009.4 hPa WNW 33.8 km/h 33.8 km/h 69% 0.0 mm 1032.00 W/m2
14:34 19.8 °C 13.9 °C 1009.4 hPa WNW 6.4 km/h 24.1 km/h 69% 0.0 mm 803.00 W/m2
14:39 19.5 °C 13.4 °C 1009.4 hPa WNW 14.3 km/h 24.1 km/h 68% 0.0 mm 429.00 W/m2
14:44 19.8 °C 13.7 °C 1009.4 hPa WNW 14.3 km/h 29.0 km/h 68% 0.0 mm 315.00 W/m2
14:49 19.8 °C 13.7 °C 1009.7 hPa West 11.1 km/h 27.4 km/h 68% 0.0 mm 315.00 W/m2
14:54 19.3 °C 13.5 °C 1009.7 hPa WNW 4.7 km/h 35.4 km/h 69% 0.0 mm 944.00 W/m2
14:59 19.5 °C 13.9 °C 1009.7 hPa West 25.9 km/h 25.7 km/h 70% 0.0 mm 339.00 W/m2
15:04 19.0 °C 13.4 °C 1009.7 hPa West 37.0 km/h 37.0 km/h 70% 0.0 mm 413.00 W/m2
15:09 18.9 °C 13.5 °C 1010.0 hPa West 33.8 km/h 33.8 km/h 71% 0.0 mm 805.00 W/m2
15:14 19.0 °C 13.4 °C 1010.0 hPa WNW 25.9 km/h 25.7 km/h 70% 0.0 mm 939.00 W/m2
15:19 19.0 °C 13.4 °C 1010.0 hPa WNW 14.3 km/h 30.6 km/h 70% 0.0 mm 243.00 W/m2
15:24 19.1 °C 13.5 °C 1010.0 hPa NW 9.7 km/h 25.7 km/h 70% 0.0 mm 828.00 W/m2
15:29 19.2 °C 13.1 °C 1010.0 hPa NW 9.7 km/h 22.5 km/h 68% 0.0 mm 909.00 W/m2
15:34 19.1 °C 13.1 °C 1010.0 hPa NW 11.1 km/h 32.2 km/h 68% 0.0 mm 909.00 W/m2
15:39 19.2 °C 12.9 °C 1010.0 hPa West 13.0 km/h 24.1 km/h 67% 0.0 mm 450.00 W/m2
15:44 19.3 °C 12.8 °C 1010.4 hPa NW 30.6 km/h 30.6 km/h 66% 0.0 mm 737.00 W/m2
15:49 19.5 °C 12.7 °C 1010.4 hPa NW 9.7 km/h 22.5 km/h 65% 0.0 mm 737.00 W/m2
15:54 19.4 °C 12.2 °C 1010.4 hPa WNW 27.4 km/h 33.8 km/h 63% 0.0 mm 740.00 W/m2
15:59 19.6 °C 13.3 °C 1010.4 hPa NW 24.1 km/h 25.7 km/h 67% 0.0 mm 719.00 W/m2
16:04 19.9 °C 13.4 °C 1010.7 hPa West 20.9 km/h 27.4 km/h 66% 0.0 mm 691.00 W/m2
16:09 19.6 °C 13.1 °C 1010.7 hPa West 22.7 km/h 32.2 km/h 66% 0.0 mm 689.00 W/m2
16:14 19.9 °C 13.4 °C 1010.7 hPa WNW 27.4 km/h 30.6 km/h 66% 0.0 mm 682.00 W/m2
16:19 20.0 °C 13.0 °C 1010.7 hPa West 33.8 km/h 33.8 km/h 64% 0.0 mm 666.00 W/m2
16:24 19.7 °C 12.7 °C 1010.7 hPa West 13.0 km/h 29.0 km/h 64% 0.0 mm 657.00 W/m2
16:29 20.0 °C 13.2 °C 1010.7 hPa West 27.4 km/h 30.6 km/h 65% 0.0 mm 650.00 W/m2
16:34 20.0 °C 13.0 °C 1010.7 hPa WNW 27.4 km/h 27.4 km/h 64% 0.0 mm 664.00 W/m2
16:39 19.9 °C 13.1 °C 1011.1 hPa WSW 9.7 km/h 16.1 km/h 65% 0.0 mm 784.00 W/m2
16:44 19.7 °C 12.9 °C 1011.1 hPa West 9.7 km/h 17.7 km/h 65% 0.0 mm 383.00 W/m2
16:49 19.2 °C 12.5 °C 1011.1 hPa West 22.7 km/h 30.6 km/h 65% 0.0 mm 294.00 W/m2
16:54 18.8 °C 12.8 °C 1011.1 hPa West 9.7 km/h 25.7 km/h 68% 0.0 mm 264.00 W/m2
16:59 19.0 °C 13.2 °C 1011.1 hPa WNW 13.0 km/h 24.1 km/h 69% 0.0 mm 673.00 W/m2
17:04 19.2 °C 12.9 °C 1011.4 hPa West 33.8 km/h 33.8 km/h 67% 0.0 mm 603.00 W/m2
17:09 18.8 °C 13.0 °C 1011.4 hPa West 11.1 km/h 24.1 km/h 69% 0.0 mm 188.00 W/m2
17:14 18.8 °C 13.0 °C 1011.4 hPa West 20.9 km/h 29.0 km/h 69% 0.0 mm 232.00 W/m2
17:19 18.7 °C 12.9 °C 1011.4 hPa WSW 24.1 km/h 25.7 km/h 69% 0.0 mm 362.00 W/m2
17:24 18.5 °C 12.9 °C 1011.4 hPa WNW 22.7 km/h 35.4 km/h 70% 0.0 mm 587.00 W/m2
17:29 18.8 °C 13.2 °C 1011.4 hPa West 19.5 km/h 22.5 km/h 70% 0.0 mm 301.00 W/m2
17:34 18.8 °C 13.2 °C 1011.4 hPa WNW 30.6 km/h 30.6 km/h 70% 0.0 mm 441.00 W/m2
17:39 18.8 °C 13.2 °C 1011.4 hPa NW 14.3 km/h 25.7 km/h 70% 0.0 mm 534.00 W/m2
17:44 18.9 °C 13.3 °C 1011.7 hPa WNW 24.1 km/h 25.7 km/h 70% 0.0 mm 220.00 W/m2
17:49 18.4 °C 12.8 °C 1011.7 hPa WNW 13.0 km/h 24.1 km/h 70% 0.0 mm 221.00 W/m2
17:54 18.9 °C 13.3 °C 1011.7 hPa WNW 11.1 km/h 20.9 km/h 70% 0.0 mm 468.00 W/m2
17:59 19.0 °C 13.4 °C 1011.7 hPa WNW 14.3 km/h 19.3 km/h 70% 0.0 mm 461.00 W/m2
18:04 19.0 °C 13.4 °C 1011.7 hPa WSW 13.0 km/h 24.1 km/h 70% 0.0 mm 454.00 W/m2
18:09 18.8 °C 13.2 °C 1011.7 hPa WNW 16.3 km/h 32.2 km/h 70% 0.0 mm 313.00 W/m2
18:14 18.8 °C 13.4 °C 1011.7 hPa WSW 9.7 km/h 20.9 km/h 71% 0.0 mm 366.00 W/m2
18:19 18.8 °C 13.4 °C 1011.7 hPa West 16.3 km/h 17.7 km/h 71% 0.0 mm 380.00 W/m2
18:24 18.9 °C 13.5 °C 1011.7 hPa WNW 11.1 km/h 20.9 km/h 71% 0.0 mm 373.00 W/m2
18:29 18.7 °C 13.3 °C 1011.7 hPa WSW 11.1 km/h 24.1 km/h 71% 0.0 mm 345.00 W/m2
18:34 18.6 °C 13.5 °C 1011.7 hPa West 13.0 km/h 27.4 km/h 72% 0.0 mm 327.00 W/m2
18:39 18.6 °C 13.5 °C 1012.1 hPa WNW 24.1 km/h 29.0 km/h 72% 0.0 mm 123.00 W/m2
18:44 18.3 °C 13.4 °C 1012.1 hPa NW 13.0 km/h 25.7 km/h 73% 0.0 mm 285.00 W/m2
18:49 18.0 °C 13.1 °C 1012.1 hPa WNW 17.7 km/h 20.9 km/h 73% 0.0 mm 181.00 W/m2
18:54 17.7 °C 12.8 °C 1012.4 hPa West 17.7 km/h 35.4 km/h 73% 0.0 mm 107.00 W/m2
18:59 17.5 °C 12.8 °C 1012.4 hPa West 13.0 km/h 25.7 km/h 74% 0.0 mm 111.00 W/m2
19:04 17.8 °C 13.1 °C 1012.4 hPa West 24.1 km/h 27.4 km/h 74% 0.0 mm 338.00 W/m2
19:09 18.0 °C 13.1 °C 1012.4 hPa West 22.7 km/h 22.5 km/h 73% 0.0 mm 285.00 W/m2
19:14 18.0 °C 13.1 °C 1012.8 hPa WNW 7.9 km/h 27.4 km/h 73% 0.0 mm 234.00 W/m2
19:19 18.2 °C 13.3 °C 1012.8 hPa WSW 13.0 km/h 19.3 km/h 73% 0.0 mm 216.00 W/m2
19:24 18.0 °C 13.1 °C 1012.8 hPa West 25.9 km/h 25.7 km/h 73% 0.0 mm 204.00 W/m2
19:29 17.7 °C 12.4 °C 1012.8 hPa WSW 32.2 km/h 32.2 km/h 71% 0.0 mm 188.00 W/m2
19:33 17.7 °C 12.2 °C 1013.1 hPa WSW 11.1 km/h 25.7 km/h 70% 0.0 mm 171.00 W/m2
19:39 17.8 °C 12.3 °C 1013.1 hPa WNW 11.1 km/h 12.9 km/h 70% 0.0 mm 148.00 W/m2
19:44 17.7 °C 12.2 °C 1013.1 hPa WNW 9.7 km/h 24.1 km/h 70% 0.0 mm 130.00 W/m2
19:49 17.4 °C 11.9 °C 1013.1 hPa West 7.9 km/h 25.7 km/h 70% 0.0 mm 120.00 W/m2
19:54 17.4 °C 12.1 °C 1013.1 hPa WNW 7.9 km/h 16.1 km/h 71% 0.0 mm 102.00 W/m2
19:59 17.4 °C 12.3 °C 1013.1 hPa West 4.7 km/h 22.5 km/h 72% 0.0 mm 93.00 W/m2
20:04 17.3 °C 12.2 °C 1013.4 hPa WSW 13.0 km/h 16.1 km/h 72% 0.0 mm 84.00 W/m2
20:09 17.3 °C 12.4 °C 1013.4 hPa WNW 7.9 km/h 11.3 km/h 73% 0.0 mm 70.00 W/m2
20:14 17.0 °C 12.1 °C 1013.4 hPa WNW 9.7 km/h 16.1 km/h 73% 0.0 mm 58.00 W/m2
20:19 17.0 °C 12.3 °C 1013.4 hPa WNW 6.4 km/h 14.5 km/h 74% 0.0 mm 51.00 W/m2
20:24 16.9 °C 12.2 °C 1013.4 hPa WNW 14.3 km/h 20.9 km/h 74% 0.0 mm 37.00 W/m2
20:29 16.8 °C 12.1 °C 1013.8 hPa WNW 11.1 km/h 17.7 km/h 74% 0.0 mm 30.00 W/m2
20:34 16.7 °C 12.2 °C 1013.8 hPa NW 13.0 km/h 17.7 km/h 75% 0.0 mm 30.00 W/m2
20:39 16.6 °C 12.1 °C 1013.8 hPa West 6.4 km/h 14.5 km/h 75% 0.0 mm 21.00 W/m2
20:44 16.5 °C 12.1 °C 1014.1 hPa West 11.1 km/h 16.1 km/h 75% 0.0 mm 18.00 W/m2
20:49 16.4 °C 12.0 °C 1014.1 hPa West 20.9 km/h 20.9 km/h 75% 0.0 mm 14.00 W/m2
20:54 16.3 °C 12.1 °C 1014.1 hPa West 7.9 km/h 16.1 km/h 76% 0.0 mm 12.00 W/m2
20:59 16.2 °C 12.0 °C 1014.1 hPa WNW 4.7 km/h 22.5 km/h 76% 0.0 mm 11.00 W/m2
21:04 16.1 °C 11.9 °C 1014.4 hPa West 4.7 km/h 12.9 km/h 76% 0.0 mm 7.00 W/m2
21:09 16.0 °C 12.0 °C 1014.4 hPa WNW 3.2 km/h 12.9 km/h 77% 0.0 mm 5.00 W/m2
21:14 15.9 °C 12.1 °C 1014.4 hPa WNW 4.7 km/h 14.5 km/h 78% 0.0 mm 0.00 W/m2
21:19 15.8 °C 12.2 °C 1014.4 hPa West 6.4 km/h 11.3 km/h 79% 0.0 mm 0.00 W/m2
21:24 15.7 °C 12.1 °C 1014.8 hPa West 13.0 km/h 12.9 km/h 79% 0.0 mm 0.00 W/m2
21:29 15.6 °C 12.2 °C 1014.8 hPa WSW 7.9 km/h 16.1 km/h 80% 0.0 mm 0.00 W/m2
21:34 15.5 °C 12.1 °C 1015.1 hPa WNW 1.4 km/h 9.7 km/h 80% 0.0 mm 0.00 W/m2
21:39 15.4 °C 12.0 °C 1015.1 hPa WNW 6.4 km/h 9.7 km/h 80% 0.0 mm 0.00 W/m2
21:44 15.4 °C 12.2 °C 1015.1 hPa West 4.7 km/h 8.0 km/h 81% 0.0 mm 0.00 W/m2
21:49 15.4 °C 12.2 °C 1015.1 hPa West 3.2 km/h 4.8 km/h 81% 0.0 mm 0.00 W/m2
21:54 15.3 °C 12.1 °C 1015.1 hPa West 1.4 km/h 6.4 km/h 81% 0.0 mm 0.00 W/m2
21:59 15.2 °C 12.0 °C 1015.1 hPa West 3.2 km/h 8.0 km/h 81% 0.0 mm 0.00 W/m2
22:04 15.1 °C 12.0 °C 1015.1 hPa West 1.4 km/h 6.4 km/h 82% 0.0 mm 0.00 W/m2
22:09 15.1 °C 12.0 °C 1015.5 hPa Calm   4.8 km/h 82% 0.0 mm 0.00 W/m2
22:14 15.0 °C 12.0 °C 1015.5 hPa West 4.7 km/h 6.4 km/h 82% 0.0 mm 0.00 W/m2
22:19 14.9 °C 11.9 °C 1015.5 hPa West 1.4 km/h 6.4 km/h 82% 0.0 mm 0.00 W/m2
22:23 14.8 °C 11.8 °C 1015.5 hPa West 1.4 km/h 3.2 km/h 82% 0.0 mm 0.00 W/m2
22:28 14.8 °C 11.8 °C 1015.5 hPa Calm   4.8 km/h 82% 0.0 mm 0.00 W/m2
22:32 14.7 °C 11.7 °C 1015.5 hPa Calm   6.4 km/h 82% 0.0 mm 0.00 W/m2
22:39 14.6 °C 11.7 °C 1015.8 hPa Calm   6.4 km/h 83% 0.0 mm 0.00 W/m2
22:44 14.5 °C 11.6 °C 1015.8 hPa Calm     83% 0.0 mm 0.00 W/m2
22:49 14.4 °C 11.5 °C 1015.8 hPa West 3.2 km/h 3.2 km/h 83% 0.0 mm 0.00 W/m2
22:54 14.4 °C 11.5 °C 1015.8 hPa Calm   1.6 km/h 83% 0.0 mm 0.00 W/m2
22:59 14.4 °C 11.5 °C 1015.8 hPa West 1.4 km/h 3.2 km/h 83% 0.0 mm 0.00 W/m2
23:04 14.3 °C 11.5 °C 1016.1 hPa West 1.4 km/h 4.8 km/h 83% 0.0 mm 0.00 W/m2
23:09 14.3 °C 11.6 °C 1015.8 hPa Calm   3.2 km/h 84% 0.0 mm 0.00 W/m2
23:14 14.2 °C 11.5 °C 1016.1 hPa Calm   4.8 km/h 84% 0.0 mm 0.00 W/m2
23:19 14.2 °C 11.5 °C 1016.1 hPa West 1.4 km/h 4.8 km/h 84% 0.0 mm 0.00 W/m2
23:24 14.1 °C 11.4 °C 1016.1 hPa West 3.2 km/h 6.4 km/h 84% 0.0 mm 0.00 W/m2
23:29 14.1 °C 11.4 °C 1016.1 hPa West 1.4 km/h 6.4 km/h 84% 0.0 mm 0.00 W/m2
23:34 14.0 °C 11.3 °C 1016.1 hPa Calm   1.6 km/h 84% 0.0 mm 0.00 W/m2
23:39 14.0 °C 11.3 °C 1016.1 hPa Calm   4.8 km/h 84% 0.0 mm 0.00 W/m2
23:44 14.0 °C 11.3 °C 1016.1 hPa West 1.4 km/h 1.6 km/h 84% 0.0 mm 0.00 W/m2
23:49 13.9 °C 11.4 °C 1016.1 hPa West 1.4 km/h 4.8 km/h 85% 0.0 mm 0.00 W/m2
23:54 13.9 °C 11.4 °C 1016.1 hPa Calm   3.2 km/h 85% 0.0 mm 0.00 W/m2
23:59 13.9 °C 11.4 °C 1016.5 hPa Calm   1.6 km/h 85% 0.0 mm 0.00 W/m2